createdAt,value
2018-07-09T00:00:07.730Z,22.17
2018-07-09T00:00:48.307Z,22.17
2018-07-09T00:01:28.884Z,22.15
2018-07-09T00:02:09.453Z,22.17
2018-07-09T00:02:50.164Z,22.17
2018-07-09T00:03:30.718Z,22.17
2018-07-09T00:04:11.276Z,22.14
2018-07-09T00:04:51.832Z,22.13
2018-07-09T00:05:32.406Z,22.11
2018-07-09T00:06:12.965Z,22.15
2018-07-09T00:06:53.526Z,22.13
2018-07-09T00:07:34.100Z,22.13
2018-07-09T00:08:14.672Z,22.06
2018-07-09T00:08:55.241Z,22.06
2018-07-09T00:09:35.798Z,22.07
2018-07-09T00:10:16.382Z,22.1
2018-07-09T00:10:57.080Z,22.08
2018-07-09T00:11:37.516Z,22
2018-07-09T00:12:18.079Z,22.13
2018-07-09T00:12:58.638Z,22.07
2018-07-09T00:13:39.200Z,22.02
2018-07-09T00:14:19.750Z,22.04
2018-07-09T00:15:00.313Z,21.93
2018-07-09T00:15:40.873Z,21.96
2018-07-09T00:16:21.431Z,21.98
2018-07-09T00:17:01.999Z,22.02
2018-07-09T00:17:42.565Z,21.93
2018-07-09T00:18:23.131Z,21.95
2018-07-09T00:19:03.675Z,21.95
2018-07-09T00:19:44.250Z,21.89
2018-07-09T00:20:24.841Z,21.89
2018-07-09T00:21:05.401Z,21.92
2018-07-09T00:21:45.953Z,21.92
2018-07-09T00:22:26.530Z,21.88
2018-07-09T00:23:07.106Z,21.93
2018-07-09T00:23:47.670Z,21.88
2018-07-09T00:24:28.234Z,21.82
2018-07-09T00:25:08.778Z,21.83
2018-07-09T00:25:49.336Z,21.92
2018-07-09T00:26:29.896Z,21.8
2018-07-09T00:27:10.455Z,21.83
2018-07-09T00:27:51.032Z,21.82
2018-07-09T00:28:31.598Z,21.91
2018-07-09T00:29:12.167Z,21.8
2018-07-09T00:29:52.728Z,21.8
2018-07-09T00:30:33.294Z,21.82
2018-07-09T00:31:13.851Z,21.88
2018-07-09T00:31:54.390Z,21.73
2018-07-09T00:32:34.962Z,21.79
2018-07-09T00:33:15.526Z,21.76
2018-07-09T00:33:56.088Z,21.69
2018-07-09T00:34:36.665Z,21.85
2018-07-09T00:35:17.224Z,21.76
2018-07-09T00:35:57.792Z,21.82
2018-07-09T00:36:38.350Z,21.75
2018-07-09T00:37:18.914Z,21.7
2018-07-09T00:37:59.473Z,21.66
2018-07-09T00:38:40.044Z,21.76
2018-07-09T00:39:20.597Z,21.72
2018-07-09T00:40:01.190Z,21.67
2018-07-09T00:40:41.731Z,21.69
2018-07-09T00:41:22.296Z,21.66
2018-07-09T00:42:02.855Z,21.72
2018-07-09T00:42:43.414Z,21.72
2018-07-09T00:43:23.984Z,21.7
2018-07-09T00:44:04.544Z,21.72
2018-07-09T00:44:45.099Z,21.66
2018-07-09T00:45:25.655Z,21.61
2018-07-09T00:46:06.216Z,21.52
2018-07-09T00:46:46.792Z,21.58
2018-07-09T00:47:27.348Z,21.54
2018-07-09T00:48:07.912Z,21.67
2018-07-09T00:48:48.471Z,21.7
2018-07-09T00:49:29.037Z,21.62
2018-07-09T00:50:09.607Z,21.6
2018-07-09T00:50:50.160Z,21.61
2018-07-09T00:51:30.724Z,21.69
2018-07-09T00:52:11.294Z,21.66
2018-07-09T00:52:51.848Z,21.5
2018-07-09T00:53:32.420Z,21.5
2018-07-09T00:54:12.974Z,21.48
2018-07-09T00:54:53.524Z,21.48
2018-07-09T00:55:34.085Z,21.58
2018-07-09T00:56:14.676Z,21.51
2018-07-09T00:56:55.234Z,21.48
2018-07-09T00:57:35.803Z,21.52
2018-07-09T00:58:16.367Z,21.46
2018-07-09T00:58:56.929Z,21.46
2018-07-09T00:59:37.490Z,21.46
2018-07-09T01:00:18.049Z,21.4
2018-07-09T01:00:58.609Z,21.46
2018-07-09T01:01:39.166Z,21.46
2018-07-09T01:03:26.657Z,21.46
2018-07-09T01:04:07.195Z,21.46
2018-07-09T01:04:47.771Z,21.48
2018-07-09T01:05:28.324Z,21.4
2018-07-09T01:06:08.905Z,21.5
2018-07-09T01:06:49.484Z,21.46
2018-07-09T01:07:30.038Z,21.43
2018-07-09T01:08:10.588Z,21.42
2018-07-09T01:08:51.164Z,21.37
2018-07-09T01:09:31.714Z,21.37
2018-07-09T01:10:12.285Z,21.39
2018-07-09T01:10:52.851Z,21.33
2018-07-09T01:11:33.410Z,21.36
2018-07-09T01:12:13.973Z,21.4
2018-07-09T01:12:54.550Z,21.36
2018-07-09T01:13:35.107Z,21.37
2018-07-09T01:14:15.668Z,21.35
2018-07-09T01:14:56.222Z,21.42
2018-07-09T01:15:36.781Z,21.3
2018-07-09T01:16:17.334Z,21.32
2018-07-09T01:16:57.894Z,21.33
2018-07-09T01:17:38.452Z,21.29
2018-07-09T01:18:19.022Z,21.29
2018-07-09T01:18:59.583Z,21.29
2018-07-09T01:19:40.145Z,21.27
2018-07-09T01:20:20.713Z,21.3
2018-07-09T01:21:01.254Z,21.25
2018-07-09T01:21:41.839Z,21.29
2018-07-09T01:22:22.377Z,21.27
2018-07-09T01:23:02.978Z,21.3
2018-07-09T01:23:43.534Z,21.25
2018-07-09T01:24:24.101Z,21.27
2018-07-09T01:25:04.664Z,21.3
2018-07-09T01:25:45.234Z,21.29
2018-07-09T01:26:25.793Z,21.27
2018-07-09T01:27:06.358Z,21.24
2018-07-09T01:27:46.915Z,21.2
2018-07-09T01:28:27.487Z,21.14
2018-07-09T01:29:08.065Z,21.22
2018-07-09T01:29:48.621Z,21.17
2018-07-09T01:30:29.181Z,21.17
2018-07-09T01:31:09.765Z,21.25
2018-07-09T01:31:50.324Z,21.24
2018-07-09T01:32:30.904Z,21.2
2018-07-09T01:33:11.451Z,21.2
2018-07-09T01:33:52.012Z,21.17
2018-07-09T01:34:32.588Z,21.09
2018-07-09T01:35:13.147Z,21.2
2018-07-09T01:35:53.700Z,21.12
2018-07-09T01:36:34.273Z,21.17
2018-07-09T01:37:14.835Z,21.09
2018-07-09T01:37:55.466Z,21.03
2018-07-09T01:38:36.052Z,21.06
2018-07-09T01:39:16.620Z,21.11
2018-07-09T01:39:57.191Z,21.09
2018-07-09T01:40:37.737Z,21.05
2018-07-09T01:41:18.289Z,21.14
2018-07-09T01:41:58.843Z,21.12
2018-07-09T01:42:39.415Z,21.12
2018-07-09T01:43:20.007Z,21.06
2018-07-09T01:44:00.569Z,21.12
2018-07-09T01:44:41.141Z,21.11
2018-07-09T01:45:21.693Z,21.17
2018-07-09T01:46:02.261Z,21.12
2018-07-09T01:46:42.810Z,21.11
2018-07-09T01:47:23.372Z,21.06
2018-07-09T01:48:03.914Z,21.12
2018-07-09T01:48:44.461Z,21.03
2018-07-09T01:49:25.010Z,21.09
2018-07-09T01:50:05.570Z,21.12
2018-07-09T01:50:46.139Z,21.14
2018-07-09T01:51:26.693Z,21.14
2018-07-09T01:52:07.260Z,21
2018-07-09T01:52:47.840Z,21.11
2018-07-09T01:53:28.388Z,21.09
2018-07-09T01:54:08.957Z,21.09
2018-07-09T01:54:49.516Z,21.07
2018-07-09T01:55:30.080Z,21.07
2018-07-09T01:56:10.628Z,21.03
2018-07-09T01:56:51.181Z,21.15
2018-07-09T01:57:31.735Z,21.07
2018-07-09T01:58:12.280Z,21.05
2018-07-09T01:58:52.870Z,21.07
2018-07-09T01:59:33.453Z,21.11
2018-07-09T02:00:14.009Z,21.03
2018-07-09T02:00:54.556Z,21.07
2018-07-09T02:01:35.111Z,21.03
2018-07-09T02:02:15.672Z,20.95
2018-07-09T02:02:56.227Z,21
2018-07-09T02:03:36.768Z,20.95
2018-07-09T02:04:17.323Z,20.99
2018-07-09T02:04:57.884Z,20.93
2018-07-09T02:05:38.451Z,21
2018-07-09T02:06:19.014Z,21
2018-07-09T02:06:59.568Z,20.95
2018-07-09T02:07:40.133Z,20.95
2018-07-09T02:08:20.701Z,20.93
2018-07-09T02:09:01.261Z,20.97
2018-07-09T02:09:41.814Z,20.88
2018-07-09T02:10:22.481Z,20.9
2018-07-09T02:11:02.989Z,20.92
2018-07-09T02:11:43.560Z,20.87
2018-07-09T02:12:24.121Z,20.84
2018-07-09T02:13:04.683Z,20.93
2018-07-09T02:13:45.273Z,20.84
2018-07-09T02:14:25.845Z,20.88
2018-07-09T02:15:06.425Z,20.87
2018-07-09T02:15:46.975Z,20.85
2018-07-09T02:16:27.544Z,20.82
2018-07-09T02:17:08.093Z,20.77
2018-07-09T02:17:48.652Z,20.81
2018-07-09T02:18:29.200Z,20.77
2018-07-09T02:19:09.755Z,20.82
2018-07-09T02:19:50.322Z,20.88
2018-07-09T02:20:30.911Z,20.75
2018-07-09T02:21:11.443Z,20.74
2018-07-09T02:21:52.009Z,20.82
2018-07-09T02:22:32.588Z,20.75
2018-07-09T02:23:13.135Z,20.8
2018-07-09T02:23:53.692Z,20.8
2018-07-09T02:24:34.257Z,20.74
2018-07-09T02:25:14.819Z,20.75
2018-07-09T02:25:55.378Z,20.74
2018-07-09T02:26:35.967Z,20.72
2018-07-09T02:27:16.515Z,20.81
2018-07-09T02:27:57.087Z,20.66
2018-07-09T02:28:37.659Z,20.7
2018-07-09T02:29:18.209Z,20.67
2018-07-09T02:29:58.757Z,20.7
2018-07-09T02:30:39.322Z,20.7
2018-07-09T02:31:19.880Z,20.7
2018-07-09T02:32:00.430Z,20.69
2018-07-09T02:32:40.990Z,20.66
2018-07-09T02:33:21.551Z,20.65
2018-07-09T02:34:02.161Z,20.75
2018-07-09T02:34:42.673Z,20.62
2018-07-09T02:35:23.247Z,20.67
2018-07-09T02:36:03.818Z,20.63
2018-07-09T02:36:44.348Z,20.6
2018-07-09T02:37:24.912Z,20.6
2018-07-09T02:38:05.486Z,20.65
2018-07-09T02:38:46.061Z,20.67
2018-07-09T02:39:26.612Z,20.58
2018-07-09T02:40:07.210Z,20.62
2018-07-09T02:40:47.776Z,20.5
2018-07-09T02:41:28.326Z,20.55
2018-07-09T02:42:08.878Z,20.6
2018-07-09T02:42:49.440Z,20.51
2018-07-09T02:43:30.026Z,20.52
2018-07-09T02:44:10.615Z,20.43
2018-07-09T02:44:51.164Z,20.48
2018-07-09T02:45:31.729Z,20.44
2018-07-09T02:46:12.274Z,20.51
2018-07-09T02:46:52.828Z,20.41
2018-07-09T02:47:33.381Z,20.48
2018-07-09T02:48:13.966Z,20.47
2018-07-09T02:48:54.544Z,20.5
2018-07-09T02:49:35.115Z,20.41
2018-07-09T02:50:15.676Z,20.44
2018-07-09T02:50:56.236Z,20.5
2018-07-09T02:51:36.792Z,20.39
2018-07-09T02:52:17.341Z,20.5
2018-07-09T02:52:57.906Z,20.41
2018-07-09T02:53:38.500Z,20.4
2018-07-09T02:54:19.077Z,20.41
2018-07-09T02:54:59.633Z,20.4
2018-07-09T02:55:40.215Z,20.37
2018-07-09T02:56:20.811Z,20.28
2018-07-09T02:57:01.373Z,20.28
2018-07-09T02:57:41.953Z,20.31
2018-07-09T02:58:22.508Z,20.36
2018-07-09T02:59:03.055Z,20.26
2018-07-09T02:59:43.605Z,20.34
2018-07-09T03:00:24.175Z,20.32
2018-07-09T03:01:04.866Z,20.37
2018-07-09T03:01:45.359Z,20.26
2018-07-09T03:02:25.879Z,20.14
2018-07-09T03:03:06.444Z,20.19
2018-07-09T03:03:47.135Z,20.19
2018-07-09T03:04:27.702Z,20.29
2018-07-09T03:05:08.266Z,20.16
2018-07-09T03:05:48.836Z,20.21
2018-07-09T03:06:29.400Z,20.16
2018-07-09T03:07:09.966Z,20.19
2018-07-09T03:07:50.508Z,20.16
2018-07-09T03:08:31.130Z,20.19
2018-07-09T03:09:11.707Z,20.24
2018-07-09T03:09:52.271Z,20.13
2018-07-09T03:10:32.832Z,20.18
2018-07-09T03:11:13.418Z,20.16
2018-07-09T03:11:53.978Z,20.11
2018-07-09T03:12:34.536Z,20.24
2018-07-09T03:13:15.111Z,20.21
2018-07-09T03:13:55.677Z,20.11
2018-07-09T03:14:36.225Z,20.13
2018-07-09T03:15:16.777Z,20.1
2018-07-09T03:15:57.346Z,20.13
2018-07-09T03:16:37.887Z,20.1
2018-07-09T03:17:18.439Z,20.04
2018-07-09T03:17:59.008Z,20.14
2018-07-09T03:18:39.598Z,20.13
2018-07-09T03:19:20.150Z,20.09
2018-07-09T03:20:00.698Z,20.07
2018-07-09T03:20:41.267Z,20.07
2018-07-09T03:21:21.824Z,20.06
2018-07-09T03:22:02.388Z,20.06
2018-07-09T03:22:42.935Z,19.96
2018-07-09T03:23:23.478Z,20.09
2018-07-09T03:24:04.039Z,20.06
2018-07-09T03:24:44.783Z,20.03
2018-07-09T03:25:25.349Z,20.03
2018-07-09T03:26:05.893Z,20.07
2018-07-09T03:26:46.471Z,20.03
2018-07-09T03:27:27.048Z,19.99
2018-07-09T03:28:07.635Z,20.06
2018-07-09T03:28:48.239Z,20.03
2018-07-09T03:29:28.824Z,20.03
2018-07-09T03:30:09.383Z,19.94
2018-07-09T03:30:49.938Z,20
2018-07-09T03:31:30.496Z,20.06
2018-07-09T03:32:11.057Z,20.02
2018-07-09T03:32:51.596Z,20.02
2018-07-09T03:33:32.151Z,19.96
2018-07-09T03:34:12.702Z,19.94
2018-07-09T03:34:53.264Z,19.89
2018-07-09T03:35:33.824Z,19.89
2018-07-09T03:36:14.371Z,20
2018-07-09T03:36:54.924Z,19.94
2018-07-09T03:37:35.489Z,19.88
2018-07-09T03:38:16.057Z,20
2018-07-09T03:38:56.616Z,19.91
2018-07-09T03:39:37.185Z,19.99
2018-07-09T03:40:17.748Z,19.95
2018-07-09T03:40:58.313Z,19.96
2018-07-09T03:41:38.867Z,19.85
2018-07-09T03:42:19.441Z,19.96
2018-07-09T03:43:00.014Z,19.91
2018-07-09T03:43:40.581Z,19.91
2018-07-09T03:44:21.143Z,19.89
2018-07-09T03:45:01.721Z,19.89
2018-07-09T03:45:42.270Z,19.92
2018-07-09T03:46:22.852Z,19.91
2018-07-09T03:47:03.426Z,19.92
2018-07-09T03:47:43.990Z,19.91
2018-07-09T03:48:24.554Z,19.91
2018-07-09T03:49:05.121Z,19.91
2018-07-09T03:49:45.685Z,19.81
2018-07-09T03:50:26.240Z,19.88
2018-07-09T03:51:06.823Z,19.81
2018-07-09T03:51:47.383Z,19.77
2018-07-09T03:52:28.005Z,19.74
2018-07-09T03:53:08.558Z,19.71
2018-07-09T03:53:49.115Z,19.69
2018-07-09T03:54:29.769Z,19.71
2018-07-09T03:55:10.328Z,19.58
2018-07-09T03:55:50.892Z,19.71
2018-07-09T03:56:31.481Z,19.69
2018-07-09T03:57:12.021Z,19.58
2018-07-09T03:57:52.591Z,19.66
2018-07-09T03:58:33.146Z,19.74
2018-07-09T03:59:13.704Z,19.71
2018-07-09T03:59:54.271Z,19.69
2018-07-09T04:00:34.823Z,19.7
2018-07-09T04:01:15.391Z,19.71
2018-07-09T04:01:55.953Z,19.66
2018-07-09T04:02:36.536Z,19.67
2018-07-09T04:03:17.100Z,19.62
2018-07-09T04:03:57.667Z,19.74
2018-07-09T04:04:38.277Z,19.74
2018-07-09T04:05:18.818Z,19.76
2018-07-09T04:05:59.389Z,19.73
2018-07-09T04:06:39.963Z,19.66
2018-07-09T04:07:20.520Z,19.74
2018-07-09T04:08:01.083Z,19.58
2018-07-09T04:08:41.647Z,19.74
2018-07-09T04:09:22.200Z,19.66
2018-07-09T04:10:02.771Z,19.71
2018-07-09T04:10:43.330Z,19.69
2018-07-09T04:11:23.897Z,19.67
2018-07-09T04:12:04.471Z,19.71
2018-07-09T04:12:45.052Z,19.76
2018-07-09T04:13:25.621Z,19.71
2018-07-09T04:14:06.192Z,19.73
2018-07-09T04:14:46.822Z,19.82
2018-07-09T04:15:27.305Z,19.62
2018-07-09T04:16:07.869Z,19.74
2018-07-09T04:16:48.425Z,19.76
2018-07-09T04:17:28.968Z,19.62
2018-07-09T04:18:09.528Z,19.58
2018-07-09T04:18:50.089Z,19.59
2018-07-09T04:19:30.642Z,19.62
2018-07-09T04:20:11.224Z,19.67
2018-07-09T04:20:51.884Z,19.7
2018-07-09T04:21:32.404Z,19.77
2018-07-09T04:22:12.965Z,19.73
2018-07-09T04:22:53.531Z,19.71
2018-07-09T04:23:34.099Z,19.69
2018-07-09T04:24:14.656Z,19.79
2018-07-09T04:24:55.209Z,19.64
2018-07-09T04:25:35.765Z,19.73
2018-07-09T04:26:16.379Z,19.74
2018-07-09T04:26:56.887Z,19.76
2018-07-09T04:27:37.448Z,19.84
2018-07-09T04:28:18.009Z,19.73
2018-07-09T04:28:58.573Z,19.76
2018-07-09T04:29:39.126Z,19.76
2018-07-09T04:30:19.685Z,19.77
2018-07-09T04:31:00.248Z,19.81
2018-07-09T04:31:40.831Z,19.76
2018-07-09T04:32:21.392Z,19.88
2018-07-09T04:33:01.972Z,19.82
2018-07-09T04:33:42.514Z,19.74
2018-07-09T04:34:23.085Z,19.73
2018-07-09T04:35:03.649Z,19.85
2018-07-09T04:35:44.195Z,19.88
2018-07-09T04:36:24.790Z,19.77
2018-07-09T04:37:05.336Z,19.71
2018-07-09T04:37:45.895Z,19.69
2018-07-09T04:38:26.445Z,19.74
2018-07-09T04:39:07.008Z,19.73
2018-07-09T04:39:47.569Z,19.69
2018-07-09T04:40:28.135Z,19.66
2018-07-09T04:41:08.704Z,19.59
2018-07-09T04:41:49.251Z,19.58
2018-07-09T04:42:29.828Z,19.64
2018-07-09T04:43:10.452Z,19.56
2018-07-09T04:43:50.956Z,19.56
2018-07-09T04:44:31.531Z,19.59
2018-07-09T04:45:12.101Z,19.62
2018-07-09T04:45:52.659Z,19.62
2018-07-09T04:46:33.228Z,19.66
2018-07-09T04:47:13.794Z,19.58
2018-07-09T04:47:54.364Z,19.52
2018-07-09T04:48:34.936Z,19.55
2018-07-09T04:49:15.518Z,19.47
2018-07-09T04:49:56.086Z,19.48
2018-07-09T04:50:36.656Z,19.54
2018-07-09T04:51:17.227Z,19.62
2018-07-09T04:51:57.792Z,19.51
2018-07-09T04:52:38.342Z,19.51
2018-07-09T04:53:18.928Z,19.54
2018-07-09T04:53:59.472Z,19.51
2018-07-09T04:54:40.034Z,19.58
2018-07-09T04:55:20.591Z,19.62
2018-07-09T04:56:01.165Z,19.56
2018-07-09T04:56:41.753Z,19.64
2018-07-09T04:57:22.319Z,19.56
2018-07-09T04:58:02.878Z,19.54
2018-07-09T04:58:43.453Z,19.63
2018-07-09T04:59:24.007Z,19.59
2018-07-09T05:00:04.577Z,19.67
2018-07-09T05:00:45.128Z,19.59
2018-07-09T05:01:25.698Z,19.58
2018-07-09T05:02:06.275Z,19.62
2018-07-09T05:02:47.268Z,19.59
2018-07-09T05:03:27.815Z,19.58
2018-07-09T05:04:08.387Z,19.62
2018-07-09T05:04:48.933Z,19.69
2018-07-09T05:05:29.492Z,19.7
2018-07-09T05:06:10.069Z,19.67
2018-07-09T05:06:50.640Z,19.64
2018-07-09T05:07:31.233Z,19.77
2018-07-09T05:08:11.806Z,19.74
2018-07-09T05:08:52.359Z,19.76
2018-07-09T05:09:32.928Z,19.76
2018-07-09T05:10:13.493Z,19.77
2018-07-09T05:10:54.048Z,19.82
2018-07-09T05:11:34.606Z,19.82
2018-07-09T05:12:15.168Z,19.81
2018-07-09T05:12:55.732Z,19.76
2018-07-09T05:13:36.277Z,19.74
2018-07-09T05:14:16.829Z,19.77
2018-07-09T05:14:57.445Z,19.71
2018-07-09T05:15:37.996Z,19.66
2018-07-09T05:16:18.543Z,19.67
2018-07-09T05:16:59.156Z,19.76
2018-07-09T05:17:39.711Z,19.71
2018-07-09T05:18:20.293Z,19.73
2018-07-09T05:19:00.903Z,19.79
2018-07-09T05:19:41.476Z,19.76
2018-07-09T05:20:22.031Z,19.74
2018-07-09T05:21:02.613Z,19.81
2018-07-09T05:21:43.181Z,19.81
2018-07-09T05:22:23.724Z,19.76
2018-07-09T05:23:04.281Z,19.82
2018-07-09T05:23:44.843Z,19.76
2018-07-09T05:24:25.416Z,19.92
2018-07-09T05:25:05.980Z,19.99
2018-07-09T05:25:46.541Z,19.84
2018-07-09T05:26:27.110Z,19.89
2018-07-09T05:27:07.703Z,19.92
2018-07-09T05:27:48.274Z,19.92
2018-07-09T05:28:28.829Z,19.85
2018-07-09T05:29:10.004Z,19.91
2018-07-09T05:29:50.556Z,19.95
2018-07-09T05:30:31.107Z,19.88
2018-07-09T05:31:11.672Z,20.02
2018-07-09T05:31:52.288Z,19.94
2018-07-09T05:32:32.851Z,19.95
2018-07-09T05:33:13.491Z,20.03
2018-07-09T05:33:54.028Z,20.07
2018-07-09T05:34:34.590Z,20.11
2018-07-09T05:35:15.238Z,20.14
2018-07-09T05:35:55.783Z,20.13
2018-07-09T05:36:36.360Z,20.29
2018-07-09T05:37:16.941Z,20.37
2018-07-09T05:37:57.525Z,20.24
2018-07-09T05:38:38.088Z,20.4
2018-07-09T05:39:18.640Z,20.43
2018-07-09T05:39:59.278Z,20.43
2018-07-09T05:40:39.813Z,20.5
2018-07-09T05:41:20.381Z,20.55
2018-07-09T05:42:00.950Z,20.55
2018-07-09T05:42:41.514Z,20.63
2018-07-09T05:43:22.077Z,20.63
2018-07-09T05:44:02.644Z,20.63
2018-07-09T05:44:43.189Z,20.66
2018-07-09T05:45:23.742Z,20.7
2018-07-09T05:46:04.314Z,20.74
2018-07-09T05:46:44.871Z,20.8
2018-07-09T05:47:25.519Z,20.77
2018-07-09T05:48:06.200Z,20.84
2018-07-09T05:48:46.769Z,20.87
2018-07-09T05:49:27.433Z,20.96
2018-07-09T05:50:07.995Z,20.97
2018-07-09T05:50:48.560Z,21.03
2018-07-09T05:51:29.134Z,21.11
2018-07-09T05:52:09.700Z,21.12
2018-07-09T05:52:50.261Z,21.14
2018-07-09T05:53:30.821Z,21.14
2018-07-09T05:54:11.361Z,21.11
2018-07-09T05:54:51.920Z,21.15
2018-07-09T05:55:32.565Z,21.03
2018-07-09T05:56:13.126Z,21.02
2018-07-09T05:56:53.748Z,21.07
2018-07-09T05:57:34.420Z,20.96
2018-07-09T05:58:14.961Z,21.09
2018-07-09T05:58:55.540Z,21.02
2018-07-09T05:59:36.084Z,20.97
2018-07-09T06:00:16.647Z,21
2018-07-09T06:00:57.211Z,21.06
2018-07-09T06:01:37.773Z,21.12
2018-07-09T06:02:18.354Z,21.14
2018-07-09T06:02:58.924Z,21.18
2018-07-09T06:03:39.496Z,21.18
2018-07-09T06:04:20.085Z,21.35
2018-07-09T06:05:00.659Z,21.4
2018-07-09T06:05:41.233Z,21.48
2018-07-09T06:06:21.800Z,21.66
2018-07-09T06:07:02.352Z,21.77
2018-07-09T06:07:42.929Z,21.91
2018-07-09T06:08:23.463Z,21.88
2018-07-09T06:09:04.027Z,21.85
2018-07-09T06:09:44.580Z,21.83
2018-07-09T06:10:25.164Z,21.93
2018-07-09T06:11:05.773Z,21.88
2018-07-09T06:11:46.304Z,21.95
2018-07-09T06:12:26.892Z,22.04
2018-07-09T06:13:07.457Z,22.07
2018-07-09T06:13:48.029Z,22.18
2018-07-09T06:14:28.602Z,22.17
2018-07-09T06:15:09.165Z,22.28
2018-07-09T06:15:49.730Z,22.44
2018-07-09T06:16:30.289Z,22.51
2018-07-09T06:17:10.849Z,22.53
2018-07-09T06:17:51.429Z,22.47
2018-07-09T06:18:32.005Z,22.6
2018-07-09T06:19:12.660Z,22.55
2018-07-09T06:19:53.130Z,22.73
2018-07-09T06:20:33.724Z,22.78
2018-07-09T06:21:14.327Z,22.75
2018-07-09T06:21:54.896Z,22.78
2018-07-09T06:22:35.473Z,22.85
2018-07-09T06:23:16.043Z,22.99
2018-07-09T06:23:56.619Z,23.09
2018-07-09T06:24:37.184Z,23.2
2018-07-09T06:25:17.760Z,23.25
2018-07-09T06:25:58.341Z,23.2
2018-07-09T06:26:38.923Z,23.36
2018-07-09T06:27:19.486Z,23.48
2018-07-09T06:28:00.058Z,23.54
2018-07-09T06:28:40.643Z,23.58
2018-07-09T06:29:21.223Z,23.62
2018-07-09T06:30:01.794Z,23.74
2018-07-09T06:30:42.372Z,23.76
2018-07-09T06:31:22.934Z,23.8
2018-07-09T06:32:03.529Z,23.87
2018-07-09T06:32:44.108Z,23.88
2018-07-09T06:33:24.658Z,23.95
2018-07-09T06:34:05.218Z,24.01
2018-07-09T06:34:45.806Z,24.08
2018-07-09T06:35:26.391Z,24.08
2018-07-09T06:36:06.968Z,24.13
2018-07-09T06:36:47.563Z,24.14
2018-07-09T06:37:28.145Z,24.21
2018-07-09T06:38:08.746Z,24.29
2018-07-09T06:38:49.301Z,24.21
2018-07-09T06:39:29.868Z,24.36
2018-07-09T06:40:10.453Z,24.32
2018-07-09T06:40:51.012Z,24.3
2018-07-09T06:41:31.598Z,24.24
2018-07-09T06:42:12.154Z,24.26
2018-07-09T06:42:52.728Z,24.28
2018-07-09T06:43:33.325Z,24.2
2018-07-09T06:44:13.875Z,24.17
2018-07-09T06:44:54.425Z,24.26
2018-07-09T06:45:34.995Z,24.17
2018-07-09T06:46:15.573Z,24.16
2018-07-09T06:46:56.153Z,24.16
2018-07-09T06:47:36.721Z,24.03
2018-07-09T06:48:17.304Z,24.14
2018-07-09T06:48:57.879Z,24.17
2018-07-09T06:49:38.457Z,24.06
2018-07-09T06:50:19.025Z,24.06
2018-07-09T06:50:59.594Z,24.06
2018-07-09T06:51:40.158Z,24.08
2018-07-09T06:52:20.724Z,24.11
2018-07-09T06:53:01.305Z,24.06
2018-07-09T06:53:41.881Z,23.98
2018-07-09T06:54:22.451Z,23.96
2018-07-09T06:55:03.023Z,24.05
2018-07-09T06:55:43.599Z,24.06
2018-07-09T06:56:24.142Z,24.17
2018-07-09T06:57:04.742Z,24.23
2018-07-09T06:57:45.314Z,24.16
2018-07-09T06:58:25.882Z,24.26
2018-07-09T06:59:06.480Z,24.3
2018-07-09T06:59:47.061Z,24.4
2018-07-09T07:00:27.651Z,24.53
2018-07-09T07:01:08.227Z,24.58
2018-07-09T07:01:48.781Z,24.7
2018-07-09T07:02:29.376Z,24.74
2018-07-09T07:03:09.940Z,24.7
2018-07-09T07:03:50.532Z,24.88
2018-07-09T07:04:31.106Z,24.76
2018-07-09T07:05:11.676Z,24.8
2018-07-09T07:05:52.253Z,24.86
2018-07-09T07:06:32.830Z,24.99
2018-07-09T07:07:13.410Z,24.92
2018-07-09T07:07:53.960Z,24.98
2018-07-09T07:08:34.537Z,24.96
2018-07-09T07:09:15.252Z,24.96
2018-07-09T07:09:55.678Z,24.98
2018-07-09T07:10:36.262Z,24.93
2018-07-09T07:11:16.819Z,24.88
2018-07-09T07:11:57.385Z,24.76
2018-07-09T07:12:37.945Z,24.74
2018-07-09T07:13:18.551Z,24.69
2018-07-09T07:13:59.117Z,24.61
2018-07-09T07:14:39.696Z,24.57
2018-07-09T07:15:20.266Z,24.66
2018-07-09T07:16:00.850Z,24.63
2018-07-09T07:16:41.424Z,24.65
2018-07-09T07:17:22.005Z,24.74
2018-07-09T07:18:02.573Z,24.7
2018-07-09T07:18:43.151Z,24.78
2018-07-09T07:19:23.721Z,24.91
2018-07-09T07:20:04.298Z,24.92
2018-07-09T07:20:44.865Z,25.01
2018-07-09T07:21:25.460Z,24.95
2018-07-09T07:22:06.033Z,24.98
2018-07-09T07:22:46.588Z,24.99
2018-07-09T07:23:27.136Z,24.98
2018-07-09T07:24:07.698Z,24.99
2018-07-09T07:24:48.283Z,25.04
2018-07-09T07:25:28.869Z,24.96
2018-07-09T07:26:09.450Z,25.04
2018-07-09T07:26:50.012Z,25.07
2018-07-09T07:27:30.603Z,25.13
2018-07-09T07:28:11.186Z,25.11
2018-07-09T07:28:51.763Z,25.16
2018-07-09T07:29:32.313Z,25.25
2018-07-09T07:30:12.912Z,25.22
2018-07-09T07:30:53.475Z,25.25
2018-07-09T07:31:34.059Z,25.22
2018-07-09T07:32:14.629Z,25.16
2018-07-09T07:32:55.206Z,25.26
2018-07-09T07:33:35.796Z,25.16
2018-07-09T07:34:16.369Z,25.1
2018-07-09T07:34:56.956Z,25.07
2018-07-09T07:35:37.512Z,24.99
2018-07-09T07:36:18.082Z,24.99
2018-07-09T07:36:58.643Z,25.1
2018-07-09T07:37:39.207Z,25.1
2018-07-09T07:38:19.772Z,25.11
2018-07-09T07:39:00.352Z,24.92
2018-07-09T07:39:40.950Z,25.03
2018-07-09T07:40:21.509Z,25.07
2018-07-09T07:41:02.065Z,25.01
2018-07-09T07:41:42.655Z,24.93
2018-07-09T07:42:23.264Z,24.95
2018-07-09T07:43:03.816Z,24.89
2018-07-09T07:43:44.385Z,24.69
2018-07-09T07:44:24.975Z,24.58
2018-07-09T07:45:05.546Z,24.48
2018-07-09T07:45:46.113Z,24.36
2018-07-09T07:46:26.676Z,24.26
2018-07-09T07:47:07.293Z,24.18
2018-07-09T07:47:47.875Z,24.2
2018-07-09T07:48:28.457Z,24.14
2018-07-09T07:49:09.011Z,24.18
2018-07-09T07:49:49.581Z,24.14
2018-07-09T07:50:30.272Z,24.18
2018-07-09T07:51:10.757Z,24.18
2018-07-09T07:51:51.315Z,24.2
2018-07-09T07:52:31.896Z,24.17
2018-07-09T07:53:12.469Z,24.18
2018-07-09T07:53:53.029Z,24.18
2018-07-09T07:54:33.595Z,24.21
2018-07-09T07:55:14.144Z,24.17
2018-07-09T07:55:54.777Z,24.26
2018-07-09T07:56:35.271Z,24.16
2018-07-09T07:57:15.851Z,24.26
2018-07-09T07:57:56.425Z,24.26
2018-07-09T07:58:36.984Z,24.29
2018-07-09T07:59:17.556Z,24.35
2018-07-09T07:59:58.133Z,24.33
2018-07-09T08:00:38.712Z,24.47
2018-07-09T08:01:19.279Z,24.39
2018-07-09T08:01:59.848Z,24.35
2018-07-09T08:02:40.423Z,24.17
2018-07-09T08:03:21.003Z,24.16
2018-07-09T08:04:01.589Z,24.16
2018-07-09T08:04:42.188Z,24.05
2018-07-09T08:05:22.727Z,23.98
2018-07-09T08:06:03.298Z,23.95
2018-07-09T08:06:43.878Z,24.03
2018-07-09T08:07:24.446Z,23.96
2018-07-09T08:08:05.010Z,24.13
2018-07-09T08:08:45.568Z,24.16
2018-07-09T08:09:26.229Z,24.2
2018-07-09T08:10:06.721Z,24.3
2018-07-09T08:10:47.289Z,24.45
2018-07-09T08:11:47.726Z,24.53
2018-07-09T08:13:00.536Z,24.65
2018-07-09T08:13:27.170Z,24.68
2018-07-09T08:13:30.577Z,24.7
2018-07-09T08:14:10.189Z,24.74
2018-07-09T08:14:50.745Z,24.77
2018-07-09T08:15:31.375Z,24.77
2018-07-09T08:16:11.910Z,24.86
2018-07-09T08:16:52.497Z,24.81
2018-07-09T08:17:33.073Z,24.93
2018-07-09T08:18:13.639Z,24.95
2018-07-09T08:18:54.230Z,25.07
2018-07-09T08:19:34.783Z,25.07
2018-07-09T08:20:15.409Z,25.1
2018-07-09T08:20:55.978Z,25.07
2018-07-09T08:21:36.575Z,25.11
2018-07-09T08:22:17.122Z,25.18
2018-07-09T08:22:57.640Z,25.18
2018-07-09T08:23:38.214Z,25.16
2018-07-09T08:24:18.790Z,25.17
2018-07-09T08:24:59.429Z,25.23
2018-07-09T08:25:40.177Z,25.25
2018-07-09T08:26:20.494Z,25.29
2018-07-09T08:27:01.077Z,25.23
2018-07-09T08:27:41.624Z,25.22
2018-07-09T08:28:22.188Z,25.22
2018-07-09T08:29:02.739Z,25.07
2018-07-09T08:29:43.333Z,24.98
2018-07-09T08:30:23.894Z,24.99
2018-07-09T08:31:04.506Z,24.95
2018-07-09T08:31:45.081Z,24.86
2018-07-09T08:32:25.678Z,24.81
2018-07-09T08:33:06.249Z,24.76
2018-07-09T08:33:46.818Z,24.69
2018-07-09T08:34:27.418Z,24.69
2018-07-09T08:35:07.978Z,24.74
2018-07-09T08:35:48.578Z,24.68
2018-07-09T08:36:29.190Z,24.65
2018-07-09T08:37:09.776Z,24.61
2018-07-09T08:37:50.345Z,24.54
2018-07-09T08:38:30.963Z,24.43
2018-07-09T08:39:11.536Z,24.45
2018-07-09T08:39:52.092Z,24.29
2018-07-09T08:40:32.637Z,24.28
2018-07-09T08:41:13.202Z,24.3
2018-07-09T08:41:53.764Z,24.26
2018-07-09T08:42:34.335Z,24.35
2018-07-09T08:43:14.904Z,24.36
2018-07-09T08:43:55.475Z,24.42
2018-07-09T08:44:36.071Z,24.42
2018-07-09T08:45:16.620Z,24.45